Time;durP1;ratioP1;P1;durP2;ratioP2;P2;SDS_P1;SDS_P2;PMS_P1;PMS_P2;Temp;Humidity;BMP_temperature;BMP_pressure;BME280_temperature;BME280_humidity;BME280_pressure;Samples;Min_cycle;Max_cycle;Signal;HPM_P1;HPM_P2
2022/02/11 00:00:31;;;;;;;11.00;9.90;;;12.00;99.90;;;;;;5084807;28;20455;-62
2022/02/11 00:08:15;;;;;;;10.23;9.27;;;11.90;99.90;;;;;;5088089;28;20513;-62
2022/02/11 00:10:46;;;;;;;13.93;11.80;;;11.80;99.90;;;;;;5086243;28;20447;-62
2022/02/11 00:13:18;;;;;;;11.23;10.23;;;11.70;99.90;;;;;;5085652;28;20439;-63
2022/02/11 00:15:53;;;;;;;12.57;11.37;;;11.60;99.90;;;;;;5085850;28;20439;-63
2022/02/11 00:18:24;;;;;;;13.30;11.23;;;11.60;99.90;;;;;;5095053;28;20824;-63
2022/02/11 00:20:55;;;;;;;13.77;12.37;;;11.50;99.90;;;;;;5086718;28;20463;-63
2022/02/11 00:23:26;;;;;;;14.23;12.73;;;11.50;99.90;;;;;;5086323;28;20454;-63
2022/02/11 00:25:59;;;;;;;14.60;12.73;;;11.50;99.90;;;;;;5091603;28;20473;-63
2022/02/11 00:31:47;;;;;;;13.40;12.00;;;11.50;99.90;;;;;;5104495;28;20439;-64
2022/02/11 00:34:21;;;;;;;11.03;9.93;;;11.50;99.90;;;;;;5071711;28;20672;-64
2022/02/11 00:37:01;;;;;;;11.50;10.30;;;11.30;99.90;;;;;;5085822;28;20447;-64
2022/02/11 00:40:02;;;;;;;11.50;10.33;;;11.20;99.90;;;;;;5085834;28;20811;-63
2022/02/11 00:45:45;;;;;;;10.90;9.83;;;11.00;99.90;;;;;;5104856;28;20476;-63
2022/02/11 01:02:53;;;;;;;10.13;9.10;;;10.50;99.90;;;;;;5088793;28;20488;-63
2022/02/11 01:05:24;;;;;;;12.00;9.50;;;10.40;99.90;;;;;;5083341;28;20455;-63
2022/02/11 01:07:55;;;;;;;14.77;10.43;;;10.30;99.90;;;;;;5089810;28;20447;-63
2022/02/11 01:10:27;;;;;;;11.40;9.70;;;10.30;99.90;;;;;;5089221;28;20448;-63
2022/02/11 01:12:58;;;;;;;10.30;8.80;;;10.20;99.90;;;;;;5090224;28;20538;-63
2022/02/11 01:15:31;;;;;;;11.03;9.70;;;10.10;99.90;;;;;;5084322;28;20451;-62
2022/02/11 01:18:06;;;;;;;13.60;10.90;;;10.10;99.90;;;;;;5096936;28;20447;-62
2022/02/11 01:20:49;;;;;;;11.97;10.67;;;10.00;99.90;;;;;;5082644;28;20462;-60
2022/02/11 01:23:37;;;;;;;13.87;11.63;;;9.90;99.90;;;;;;5099513;28;20570;-62
2022/02/11 01:26:20;;;;;;;15.85;11.93;;;9.80;99.90;;;;;;5081255;28;20524;-61
2022/02/11 01:29:17;;;;;;;12.10;10.80;;;9.60;99.90;;;;;;5091645;28;20201;-62
2022/02/11 01:31:56;;;;;;;16.60;11.77;;;9.50;99.90;;;;;;5089025;28;20458;-63
2022/02/11 01:34:47;;;;;;;13.83;12.43;;;9.50;99.90;;;;;;5089700;28;20538;-60
2022/02/11 01:37:30;;;;;;;13.45;12.02;;;9.40;99.90;;;;;;5080455;28;20486;-61
2022/02/11 01:40:35;;;;;;;15.35;12.50;;;9.30;99.90;;;;;;5086155;28;20213;-62
2022/02/11 01:49:08;;;;;;;13.85;11.63;;;9.00;99.90;;;;;;5085323;28;20201;-62
2022/02/11 01:51:49;;;;;;;13.18;11.82;;;8.90;99.90;;;;;;5077787;28;20205;-63
2022/02/11 01:54:36;;;;;;;12.02;10.07;;;8.90;99.90;;;;;;5088097;28;20263;-62
2022/02/11 01:57:14;;;;;;;12.15;10.85;;;8.90;99.90;;;;;;5076533;28;20197;-62
2022/02/11 02:00:12;;;;;;;11.82;10.50;;;8.70;99.90;;;;;;5084702;28;20314;-61
2022/02/11 02:03:13;;;;;;;11.13;9.90;;;8.70;99.90;;;;;;5089152;28;20215;-62
2022/02/11 02:06:12;;;;;;;10.85;9.32;;;8.60;99.90;;;;;;5086897;28;20203;-67
2022/02/11 02:09:16;;;;;;;13.40;10.98;;;8.50;99.90;;;;;;5083394;28;20193;-63
2022/02/11 02:15:21;;;;;;;10.23;9.23;;;8.50;99.90;;;;;;5092645;28;20189;-61
2022/02/11 02:18:43;;;;;;;11.52;10.35;;;8.50;99.90;;;;;;5093188;28;20189;-63
2022/02/11 02:24:10;;;;;;;10.45;9.30;;;8.50;99.90;;;;;;5020304;28;20203;-62
2022/02/11 02:38:16;;;;;;;10.85;9.75;;;8.90;99.90;;;;;;5021423;28;20230;-62
2022/02/11 02:57:48;;;;;;;11.00;10.00;;;9.20;99.90;;;;;;5045737;28;20453;-66
2022/02/11 03:00:57;;;;;;;10.30;9.30;;;9.20;99.90;;;;;;5080506;28;20204;-64
2022/02/11 03:34:46;;;;;;;9.67;8.67;;;9.50;99.90;;;;;;5081734;28;20248;-61
2022/02/11 03:48:53;;;;;;;9.60;8.70;;;9.50;99.90;;;;;;5073386;28;20194;-62
2022/02/11 03:51:37;;;;;;;9.38;8.45;;;9.40;99.90;;;;;;5084935;28;20207;-63
2022/02/11 03:54:45;;;;;;;9.95;9.05;;;9.50;99.90;;;;;;5087483;28;20515;-63
2022/02/11 04:56:47;;;;;;;13.40;11.37;;;9.30;99.90;;;;;;4983706;28;20227;-64
2022/02/11 04:59:39;;;;;;;11.83;10.63;;;9.40;99.90;;;;;;4982662;28;20928;-64
2022/02/11 05:02:10;;;;;;;14.13;12.10;;;9.40;99.90;;;;;;5003800;28;20940;-64
2022/02/11 05:04:41;;;;;;;13.45;11.63;;;9.40;99.90;;;;;;5050611;28;20479;-63
2022/02/11 05:07:12;;;;;;;15.55;11.98;;;9.40;99.90;;;;;;5057922;28;20289;-63
2022/02/11 05:09:43;;;;;;;13.60;11.50;;;9.40;99.90;;;;;;5051019;28;20202;-63
2022/02/11 05:12:14;;;;;;;14.05;12.60;;;9.30;99.90;;;;;;5083597;28;20534;-63
2022/02/11 05:14:47;;;;;;;16.23;13.48;;;9.40;99.90;;;;;;5091089;28;20207;-63
2022/02/11 05:17:18;;;;;;;13.32;11.50;;;9.40;99.90;;;;;;5105438;28;20196;-64
2022/02/11 05:19:48;;;;;;;13.15;11.75;;;9.40;99.90;;;;;;5099404;28;20280;-63
2022/02/11 05:22:19;;;;;;;12.52;11.23;;;9.30;99.90;;;;;;5089426;28;20213;-64
2022/02/11 05:24:50;;;;;;;13.87;12.47;;;9.30;99.90;;;;;;5084613;28;20229;-63
2022/02/11 05:27:21;;;;;;;14.05;12.52;;;9.30;99.90;;;;;;5097498;28;20454;-63
2022/02/11 05:29:53;;;;;;;15.32;13.00;;;9.40;99.90;;;;;;5086200;28;20205;-63
2022/02/11 05:32:24;;;;;;;15.55;12.85;;;9.40;99.90;;;;;;5090329;28;20185;-62
2022/02/11 05:34:55;;;;;;;13.93;12.50;;;9.30;99.90;;;;;;5094395;28;20199;-63
2022/02/11 05:37:26;;;;;;;15.18;12.70;;;9.40;99.90;;;;;;5090123;28;20523;-63
2022/02/11 05:39:56;;;;;;;14.98;13.15;;;9.40;99.90;;;;;;5088772;28;20288;-67
2022/02/11 05:42:28;;;;;;;14.65;12.95;;;9.30;99.90;;;;;;5099771;28;20192;-63
2022/02/11 05:45:00;;;;;;;14.75;13.25;;;9.30;99.90;;;;;;5083434;28;20584;-63
2022/02/11 05:47:31;;;;;;;13.57;12.17;;;9.30;99.90;;;;;;5084118;28;20530;-62
2022/02/11 05:50:03;;;;;;;14.70;13.30;;;9.30;99.90;;;;;;5084224;28;20452;-62
2022/02/11 05:52:54;;;;;;;15.50;13.63;;;9.30;99.90;;;;;;5095034;28;20231;-63
2022/02/11 05:55:25;;;;;;;14.70;12.93;;;9.30;99.90;;;;;;5100392;28;20451;-62
2022/02/11 05:57:56;;;;;;;14.60;12.43;;;9.30;99.90;;;;;;5086007;28;20451;-63
2022/02/11 06:00:28;;;;;;;17.45;13.45;;;9.30;99.90;;;;;;5085969;28;20522;-63
2022/02/11 06:02:59;;;;;;;12.95;11.65;;;9.30;99.90;;;;;;5091213;28;20201;-64
2022/02/11 06:05:30;;;;;;;15.67;11.90;;;9.20;99.90;;;;;;5094210;28;20525;-63
2022/02/11 06:08:01;;;;;;;14.20;12.52;;;9.20;99.90;;;;;;5083289;28;20455;-64
2022/02/11 06:10:32;;;;;;;14.63;13.10;;;9.30;99.90;;;;;;5088040;28;20199;-63
2022/02/11 06:13:03;;;;;;;15.93;13.30;;;9.30;99.90;;;;;;5087774;28;20833;-63
2022/02/11 06:15:35;;;;;;;15.93;14.13;;;9.30;99.90;;;;;;5087382;28;20543;-63
2022/02/11 06:18:07;;;;;;;16.15;14.30;;;9.30;99.90;;;;;;5084179;28;20516;-64
2022/02/11 06:20:38;;;;;;;15.40;13.07;;;9.30;99.90;;;;;;5082344;28;20272;-64
2022/02/11 06:23:08;;;;;;;13.63;11.57;;;9.30;99.90;;;;;;5093235;28;20201;-64
2022/02/11 06:25:39;;;;;;;17.27;14.50;;;9.20;99.90;;;;;;5085402;28;20198;-64
2022/02/11 06:28:11;;;;;;;14.80;13.30;;;9.30;99.90;;;;;;5093176;28;20462;-63
2022/02/11 06:30:44;;;;;;;15.32;12.38;;;9.30;99.90;;;;;;5093300;28;20451;-64
2022/02/11 06:33:14;;;;;;;14.10;11.80;;;9.30;99.90;;;;;;5086269;28;20228;-63
2022/02/11 06:35:45;;;;;;;15.90;12.95;;;9.40;99.90;;;;;;5089732;28;20547;-64
2022/02/11 06:38:17;;;;;;;16.33;13.60;;;9.30;99.90;;;;;;5086262;28;20559;-64
2022/02/11 06:40:48;;;;;;;14.10;12.50;;;9.30;99.90;;;;;;5087573;28;20550;-64
2022/02/11 06:43:18;;;;;;;16.60;13.40;;;9.40;99.90;;;;;;5084897;28;20292;-64
2022/02/11 06:45:51;;;;;;;15.82;13.07;;;9.40;99.90;;;;;;5097072;28;20465;-64
2022/02/11 06:48:23;;;;;;;14.10;12.60;;;9.40;99.90;;;;;;5083005;28;20193;-64
2022/02/11 06:50:55;;;;;;;16.17;13.87;;;9.40;99.90;;;;;;5093369;28;20548;-64
2022/02/11 06:53:25;;;;;;;15.70;13.43;;;9.40;99.90;;;;;;5085787;28;20452;-64
2022/02/11 06:55:56;;;;;;;15.17;12.73;;;9.40;99.90;;;;;;5094340;28;20457;-64
2022/02/11 06:58:27;;;;;;;15.47;12.80;;;9.40;99.90;;;;;;5093097;28;20453;-63
2022/02/11 07:01:00;;;;;;;13.73;12.27;;;9.50;99.90;;;;;;5085177;28;20456;-64
2022/02/11 07:03:31;;;;;;;14.70;12.27;;;9.50;99.90;;;;;;5098660;28;20197;-64
2022/02/11 07:06:03;;;;;;;14.20;12.70;;;9.40;99.90;;;;;;5085064;28;20456;-63
2022/02/11 07:08:34;;;;;;;14.37;12.30;;;9.50;99.90;;;;;;5086492;28;20462;-64
2022/02/11 07:11:05;;;;;;;12.90;11.57;;;9.40;99.90;;;;;;5097021;28;20547;-64
2022/02/11 07:13:36;;;;;;;14.43;12.33;;;9.50;99.90;;;;;;5078475;28;20193;-64
2022/02/11 07:16:09;;;;;;;13.50;11.10;;;9.50;99.90;;;;;;5086030;28;20879;-64
2022/02/11 07:18:40;;;;;;;12.37;10.73;;;9.50;99.90;;;;;;5092722;28;20512;-63
2022/02/11 07:21:11;;;;;;;11.95;10.75;;;9.50;99.90;;;;;;5086164;28;20541;-63
2022/02/11 07:23:47;;;;;;;12.30;11.00;;;9.40;99.90;;;;;;5079844;28;20201;-64
2022/02/11 07:26:18;;;;;;;13.07;10.80;;;9.40;99.90;;;;;;5081291;28;20462;-65
2022/02/11 07:28:49;;;;;;;11.90;10.30;;;9.40;99.90;;;;;;5087761;28;20459;-63
2022/02/11 07:31:21;;;;;;;13.40;11.20;;;9.30;99.90;;;;;;5097549;28;20457;-63
2022/02/11 07:33:52;;;;;;;13.00;11.10;;;9.30;99.90;;;;;;5091017;28;20444;-62
2022/02/11 07:36:24;;;;;;;13.50;11.77;;;9.40;99.90;;;;;;5096855;28;20472;-63
2022/02/11 07:38:56;;;;;;;12.55;11.25;;;9.40;99.90;;;;;;5088270;28;20486;-62
2022/02/11 07:41:27;;;;;;;12.70;11.13;;;9.40;99.90;;;;;;5093006;28;20273;-63
2022/02/11 07:43:58;;;;;;;12.30;10.83;;;9.30;99.90;;;;;;5092239;28;20455;-63
2022/02/11 07:46:30;;;;;;;11.87;10.23;;;9.40;99.90;;;;;;5086091;28;20501;-63
2022/02/11 07:49:05;;;;;;;14.00;10.93;;;9.30;99.90;;;;;;5087996;28;20440;-64
2022/02/11 07:51:36;;;;;;;11.38;10.20;;;9.30;99.90;;;;;;5089958;28;20463;-62
2022/02/11 07:54:07;;;;;;;11.10;10.00;;;9.30;99.90;;;;;;5086197;28;20212;-62
2022/02/11 07:56:38;;;;;;;12.13;10.55;;;9.40;99.90;;;;;;5083191;28;20446;-63
2022/02/11 07:59:09;;;;;;;12.15;10.93;;;9.40;99.90;;;;;;5089699;28;20281;-63
2022/02/11 08:01:42;;;;;;;11.80;10.60;;;9.30;99.90;;;;;;5084641;28;20204;-63
2022/02/11 08:04:13;;;;;;;12.57;10.32;;;9.30;99.90;;;;;;5083652;28;20203;-63
2022/02/11 08:06:44;;;;;;;10.52;9.43;;;9.30;99.90;;;;;;5091833;28;20205;-63
2022/02/11 08:09:15;;;;;;;12.90;10.55;;;9.20;99.90;;;;;;5092154;28;20221;-63
2022/02/11 08:11:46;;;;;;;11.20;10.10;;;9.20;99.90;;;;;;5082174;28;20197;-62
2022/02/11 08:14:17;;;;;;;10.73;9.63;;;9.20;99.90;;;;;;5083302;28;20450;-62
2022/02/11 08:16:50;;;;;;;10.87;9.67;;;9.30;99.90;;;;;;5099314;28;20435;-62
2022/02/11 08:19:22;;;;;;;11.37;9.13;;;9.20;99.90;;;;;;5097409;28;20898;-62
2022/02/11 08:21:53;;;;;;;10.73;9.48;;;9.20;99.90;;;;;;5094009;28;20448;-63
2022/02/11 08:24:24;;;;;;;10.53;9.33;;;9.20;99.90;;;;;;5097111;28;20541;-63
2022/02/11 08:26:54;;;;;;;10.60;9.50;;;9.10;99.90;;;;;;5088977;28;20450;-63
2022/02/11 08:29:31;;;;;;;10.60;9.55;;;9.20;99.90;;;;;;5095030;28;20464;-63
2022/02/11 08:32:03;;;;;;;10.00;9.00;;;9.20;99.90;;;;;;5075671;28;20539;-63
2022/02/11 08:34:34;;;;;;;10.43;9.43;;;9.20;99.90;;;;;;5100952;28;20454;-63
2022/02/11 08:37:06;;;;;;;9.93;8.83;;;9.30;99.90;;;;;;5090926;28;20493;-63
2022/02/11 08:39:38;;;;;;;11.20;10.10;;;9.30;99.90;;;;;;5098600;28;20504;-63
2022/02/11 08:42:10;;;;;;;10.35;8.75;;;9.20;99.90;;;;;;5075419;28;20456;-63
2022/02/11 08:44:41;;;;;;;9.73;8.75;;;9.20;99.90;;;;;;5090058;28;20303;-63
2022/02/11 08:47:13;;;;;;;9.90;8.90;;;9.20;99.90;;;;;;5086671;28;20208;-63
2022/02/11 08:49:44;;;;;;;10.53;9.30;;;9.20;99.90;;;;;;5100943;28;20762;-63
2022/02/11 08:52:15;;;;;;;10.77;9.40;;;9.10;99.90;;;;;;5091333;28;20459;-63
2022/02/11 08:54:46;;;;;;;11.47;9.23;;;9.10;99.90;;;;;;5089663;28;20225;-63
2022/02/11 08:57:17;;;;;;;12.30;9.30;;;9.10;99.90;;;;;;5090604;28;20793;-63
2022/02/11 08:59:48;;;;;;;11.97;10.70;;;9.10;99.90;;;;;;5094964;28;20551;-63
2022/02/11 09:02:22;;;;;;;10.65;9.50;;;9.10;99.90;;;;;;5094312;28;20447;-63
2022/02/11 09:04:54;;;;;;;14.83;11.40;;;9.10;99.90;;;;;;5087975;28;20220;-63
2022/02/11 09:07:25;;;;;;;14.40;12.23;;;9.20;99.90;;;;;;5092088;28;20452;-63
2022/02/11 09:09:56;;;;;;;15.63;12.40;;;9.10;99.90;;;;;;5085257;28;20486;-63
2022/02/11 09:12:27;;;;;;;15.70;12.43;;;9.10;99.90;;;;;;5088138;28;20204;-63
2022/02/11 09:14:57;;;;;;;15.57;12.80;;;9.10;99.90;;;;;;5100698;28;20220;-63
2022/02/11 09:17:30;;;;;;;19.15;13.45;;;9.10;99.90;;;;;;5093645;28;20438;-63
2022/02/11 09:20:01;;;;;;;18.03;14.37;;;9.10;99.90;;;;;;5090855;28;20201;-63
2022/02/11 09:22:32;;;;;;;16.48;12.90;;;9.10;99.90;;;;;;5091908;28;20451;-63
2022/02/11 09:25:02;;;;;;;18.30;14.30;;;9.00;99.90;;;;;;5094872;28;20220;-63
2022/02/11 09:27:35;;;;;;;17.60;12.90;;;9.00;99.90;;;;;;5087284;28;20455;-63
2022/02/11 09:30:09;;;;;;;18.20;13.53;;;9.00;99.90;;;;;;5087832;28;20447;-63
2022/02/11 09:32:41;;;;;;;17.30;13.97;;;9.00;99.90;;;;;;5096091;28;20464;-63
2022/02/11 09:35:13;;;;;;;19.23;13.40;;;8.80;99.90;;;;;;5098127;28;20542;-62
2022/02/11 09:37:44;;;;;;;19.40;12.97;;;8.90;99.90;;;;;;5087613;28;21030;-63
2022/02/11 09:40:18;;;;;;;18.37;13.70;;;8.90;99.90;;;;;;5096144;28;20486;-63
2022/02/11 09:42:49;;;;;;;18.85;13.80;;;8.90;99.90;;;;;;5088352;28;20542;-63
2022/02/11 09:45:22;;;;;;;16.85;13.80;;;8.90;99.90;;;;;;5086175;28;20218;-64
2022/02/11 09:47:54;;;;;;;22.33;14.30;;;8.80;99.90;;;;;;5087870;28;20257;-63
2022/02/11 09:50:25;;;;;;;16.43;12.40;;;8.90;99.90;;;;;;5088886;28;20304;-63
2022/02/11 09:52:57;;;;;;;19.75;13.52;;;8.80;99.90;;;;;;5094667;28;20447;-63
2022/02/11 09:55:35;;;;;;;18.13;13.57;;;8.80;99.90;;;;;;5090445;28;20206;-63
2022/02/11 09:58:08;;;;;;;21.80;14.10;;;8.80;99.90;;;;;;5096526;28;20204;-63
2022/02/11 10:00:41;;;;;;;15.48;12.95;;;8.80;99.90;;;;;;5098247;28;20453;-63
2022/02/11 10:03:19;;;;;;;18.50;13.60;;;8.80;99.90;;;;;;5089271;28;20196;-63
2022/02/11 10:05:55;;;;;;;20.17;14.60;;;8.80;99.90;;;;;;5104002;28;20474;-63
2022/02/11 10:08:27;;;;;;;17.83;13.70;;;8.80;99.90;;;;;;5088967;28;20287;-63
2022/02/11 10:10:59;;;;;;;18.15;13.45;;;8.70;99.90;;;;;;5101447;28;20201;-63
2022/02/11 10:13:32;;;;;;;17.88;13.05;;;8.70;99.90;;;;;;5097229;28;20205;-63
2022/02/11 10:16:08;;;;;;;19.20;13.27;;;8.70;99.90;;;;;;5101873;28;20210;-63
2022/02/11 10:18:42;;;;;;;18.47;12.80;;;8.70;99.90;;;;;;5084080;28;20185;-63
2022/02/11 10:21:15;;;;;;;16.27;12.52;;;8.70;99.90;;;;;;5098476;28;20448;-63
2022/02/11 10:23:45;;;;;;;16.10;12.77;;;8.80;99.90;;;;;;5083866;28;20199;-63
2022/02/11 10:26:17;;;;;;;16.48;12.63;;;8.80;99.90;;;;;;5085611;28;20228;-63
2022/02/11 10:28:50;;;;;;;15.90;12.30;;;8.70;99.90;;;;;;5084620;28;20207;-63
2022/02/11 10:31:22;;;;;;;17.15;12.68;;;8.60;99.90;;;;;;5089669;28;20205;-63
2022/02/11 10:34:03;;;;;;;16.58;12.70;;;8.60;99.90;;;;;;5097089;28;20596;-63
2022/02/11 10:36:38;;;;;;;15.68;13.20;;;8.70;99.90;;;;;;5087954;28;20185;-63
2022/02/11 10:39:26;;;;;;;16.45;13.02;;;8.60;99.90;;;;;;5079454;28;20232;-63
2022/02/11 10:41:59;;;;;;;15.93;12.20;;;8.60;99.90;;;;;;5087329;28;20215;-63
2022/02/11 10:44:33;;;;;;;18.67;11.75;;;8.60;99.90;;;;;;5088388;28;20271;-63
2022/02/11 10:47:07;;;;;;;15.23;12.77;;;8.60;99.90;;;;;;5084085;28;20224;-63
2022/02/11 10:49:42;;;;;;;15.43;12.65;;;8.60;99.90;;;;;;5086501;28;20443;-63
2022/02/11 10:52:15;;;;;;;16.75;12.48;;;8.50;99.90;;;;;;5087471;28;20186;-63
2022/02/11 10:54:49;;;;;;;14.70;12.18;;;8.50;99.90;;;;;;5084365;28;20189;-63
2022/02/11 10:57:21;;;;;;;14.38;11.85;;;8.50;99.90;;;;;;5092865;28;20202;-63
2022/02/11 10:59:52;;;;;;;15.95;13.35;;;8.50;99.90;;;;;;5084418;28;20201;-63
2022/02/11 11:02:24;;;;;;;16.38;12.38;;;8.40;99.90;;;;;;5086717;28;20196;-63
2022/02/11 11:04:58;;;;;;;15.15;12.00;;;8.50;99.90;;;;;;5090442;28;20208;-63
2022/02/11 11:07:30;;;;;;;15.77;11.98;;;8.50;99.90;;;;;;5086157;28;20209;-63
2022/02/11 11:10:18;;;;;;;14.23;11.38;;;8.60;99.90;;;;;;5076015;28;20185;-63
2022/02/11 11:12:54;;;;;;;18.88;13.93;;;8.60;99.90;;;;;;5084693;28;20206;-63
2022/02/11 11:15:26;;;;;;;13.60;11.80;;;8.50;99.90;;;;;;5091422;28;20236;-63
2022/02/11 11:17:58;;;;;;;15.93;12.05;;;8.60;99.90;;;;;;5088024;28;20231;-63
2022/02/11 11:20:33;;;;;;;16.08;12.18;;;8.60;99.90;;;;;;5096805;28;20197;-64
2022/02/11 11:23:19;;;;;;;18.00;12.57;;;8.50;99.90;;;;;;5084698;28;20254;-64
2022/02/11 11:25:55;;;;;;;15.02;11.70;;;8.50;99.90;;;;;;5096697;28;20215;-64
2022/02/11 11:28:49;;;;;;;13.27;10.40;;;8.60;99.90;;;;;;5086502;28;20206;-64
2022/02/11 11:31:25;;;;;;;15.13;11.82;;;8.60;99.90;;;;;;5087021;28;20268;-63
2022/02/11 11:34:26;;;;;;;12.73;9.65;;;8.50;99.90;;;;;;5094589;28;20202;-64
2022/02/11 11:37:05;;;;;;;12.90;10.45;;;8.40;99.90;;;;;;5091589;28;20208;-63
2022/02/11 11:39:36;;;;;;;12.45;10.38;;;8.40;99.90;;;;;;5095039;28;20334;-63
2022/02/11 11:42:17;;;;;;;12.70;10.40;;;8.40;99.90;;;;;;5095638;28;20340;-64
2022/02/11 11:44:50;;;;;;;12.80;9.85;;;8.40;99.90;;;;;;5089410;28;20196;-64
2022/02/11 11:47:30;;;;;;;11.40;9.40;;;8.40;99.90;;;;;;5092524;28;20220;-63
2022/02/11 11:50:03;;;;;;;12.30;9.70;;;8.40;99.90;;;;;;5083320;28;20435;-65
2022/02/11 11:52:43;;;;;;;11.32;8.65;;;8.40;99.90;;;;;;5086955;28;20436;-63
2022/02/11 11:55:22;;;;;;;12.13;9.55;;;8.40;99.90;;;;;;5085030;28;20200;-63
2022/02/11 11:57:54;;;;;;;13.77;10.13;;;8.40;99.90;;;;;;5086499;28;20212;-64
2022/02/11 12:00:39;;;;;;;9.20;8.30;;;8.40;99.90;;;;;;5091902;28;20201;-63
2022/02/11 12:03:12;;;;;;;11.07;9.00;;;8.40;99.90;;;;;;5087623;28;20347;-63
2022/02/11 12:05:45;;;;;;;10.27;8.93;;;8.40;99.90;;;;;;5093421;28;20830;-63
2022/02/11 12:08:20;;;;;;;10.63;9.57;;;8.40;99.90;;;;;;5094672;28;20284;-64
2022/02/11 12:10:51;;;;;;;11.60;9.48;;;8.40;99.90;;;;;;5104243;28;20188;-63
2022/02/11 12:13:22;;;;;;;11.20;8.88;;;8.40;99.90;;;;;;5100441;28;20215;-63
2022/02/11 12:15:53;;;;;;;10.95;9.45;;;8.30;99.90;;;;;;5085939;28;20193;-63
2022/02/11 12:18:26;;;;;;;11.38;9.65;;;8.20;99.90;;;;;;5088716;28;20260;-63
2022/02/11 12:20:59;;;;;;;10.63;7.90;;;8.20;99.90;;;;;;5099186;28;20205;-63
2022/02/11 12:29:10;;;;;;;9.65;8.55;;;8.20;99.90;;;;;;5093663;28;20447;-63
2022/02/11 12:31:41;;;;;;;9.45;8.48;;;8.20;99.90;;;;;;5090725;28;20204;-63
2022/02/11 12:34:16;;;;;;;13.20;9.82;;;8.10;99.90;;;;;;5088962;28;20202;-63
2022/02/11 12:36:47;;;;;;;10.32;9.23;;;8.10;99.90;;;;;;5087508;28;20220;-63
2022/02/11 12:39:24;;;;;;;12.13;9.52;;;8.10;99.90;;;;;;5099594;28;20268;-62
2022/02/11 12:41:56;;;;;;;11.88;9.13;;;8.20;99.90;;;;;;5094774;28;20189;-62
2022/02/11 12:44:28;;;;;;;12.13;9.10;;;8.20;99.90;;;;;;5089465;28;20215;-62
2022/02/11 12:47:01;;;;;;;9.80;8.23;;;8.10;99.90;;;;;;5104179;28;20270;-62
2022/02/11 12:49:33;;;;;;;10.77;8.18;;;8.10;99.90;;;;;;5094637;28;20220;-62
2022/02/11 12:52:05;;;;;;;7.93;6.85;;;8.10;99.90;;;;;;5089833;28;20197;-63
2022/02/11 12:54:37;;;;;;;9.60;8.25;;;8.00;99.90;;;;;;5084968;28;20209;-63
2022/02/11 12:57:13;;;;;;;9.63;7.93;;;8.10;99.90;;;;;;5099192;28;20200;-63
2022/02/11 12:59:52;;;;;;;9.90;8.70;;;8.10;99.90;;;;;;5086505;28;20190;-63
2022/02/11 13:02:28;;;;;;;9.38;8.00;;;8.10;99.90;;;;;;5077970;28;20198;-63
2022/02/11 13:05:10;;;;;;;11.77;9.20;;;8.10;99.90;;;;;;5089614;28;20264;-63
2022/02/11 13:07:42;;;;;;;11.40;8.30;;;8.10;99.90;;;;;;5086503;28;20240;-63
2022/02/11 13:10:22;;;;;;;10.93;9.52;;;8.20;99.90;;;;;;5101871;28;20219;-62
2022/02/11 13:12:54;;;;;;;12.38;8.65;;;8.20;99.90;;;;;;5098484;28;20286;-63
2022/02/11 13:15:29;;;;;;;10.38;9.27;;;8.10;99.90;;;;;;5091434;28;20205;-63
2022/02/11 13:18:12;;;;;;;10.52;9.00;;;8.00;99.90;;;;;;5102230;28;20236;-62
2022/02/11 13:20:48;;;;;;;11.77;9.43;;;8.10;99.90;;;;;;5099267;28;20276;-62
2022/02/11 13:23:21;;;;;;;12.05;8.82;;;8.10;99.90;;;;;;5087352;28;20626;-62
2022/02/11 13:25:56;;;;;;;11.07;9.80;;;8.10;99.90;;;;;;5101732;28;20206;-62
2022/02/11 13:28:28;;;;;;;13.13;10.05;;;8.10;99.90;;;;;;5100224;28;20562;-62
2022/02/11 13:31:04;;;;;;;15.27;10.90;;;8.00;99.90;;;;;;5086716;28;20206;-62
2022/02/11 13:33:36;;;;;;;11.68;9.48;;;8.00;99.90;;;;;;5085888;28;20652;-63
2022/02/11 13:36:12;;;;;;;11.00;9.80;;;8.00;99.90;;;;;;5100233;28;20207;-63
2022/02/11 13:38:49;;;;;;;11.07;9.88;;;8.10;99.90;;;;;;5083707;28;20316;-63
2022/02/11 13:41:29;;;;;;;11.93;10.13;;;8.00;99.90;;;;;;5097258;28;20208;-63
2022/02/11 13:44:01;;;;;;;13.32;10.90;;;8.10;99.90;;;;;;5084674;28;21052;-63
2022/02/11 13:46:53;;;;;;;12.23;9.18;;;8.10;99.90;;;;;;5085253;28;20205;-63
2022/02/11 13:49:24;;;;;;;12.37;10.40;;;8.10;99.90;;;;;;5096077;28;20697;-63
2022/02/11 13:55:00;;;;;;;13.13;10.45;;;8.20;99.90;;;;;;5073702;28;20526;-62
2022/02/11 13:57:35;;;;;;;12.05;9.90;;;8.10;99.90;;;;;;5094058;28;20222;-63
2022/02/11 14:00:31;;;;;;;11.00;9.07;;;8.20;99.90;;;;;;5097978;28;20200;-63
2022/02/11 14:03:02;;;;;;;13.00;10.70;;;8.20;99.90;;;;;;5093229;28;20208;-62
2022/02/11 14:05:44;;;;;;;10.60;9.18;;;8.20;99.90;;;;;;5098633;28;20442;-63
2022/02/11 14:08:16;;;;;;;11.30;9.23;;;8.10;99.90;;;;;;5080184;28;20258;-63
2022/02/11 14:10:48;;;;;;;11.32;10.15;;;8.20;99.90;;;;;;5091819;28;20283;-63
2022/02/11 14:13:25;;;;;;;11.68;10.40;;;8.20;99.90;;;;;;5084386;28;20186;-63
2022/02/11 14:15:55;;;;;;;12.38;10.73;;;8.10;99.90;;;;;;5084865;28;20201;-64
2022/02/11 14:18:26;;;;;;;12.48;10.20;;;8.20;99.90;;;;;;5088589;28;20201;-64
2022/02/11 14:20:57;;;;;;;12.60;10.93;;;8.20;99.90;;;;;;5088885;28;20197;-64
2022/02/11 14:23:29;;;;;;;11.93;10.63;;;8.20;99.90;;;;;;5087229;28;20291;-63
2022/02/11 14:26:01;;;;;;;13.38;9.70;;;8.10;99.90;;;;;;5088804;28;20205;-63
2022/02/11 14:28:34;;;;;;;11.85;10.65;;;8.00;99.90;;;;;;5097388;28;20205;-62
2022/02/11 14:31:07;;;;;;;11.98;10.75;;;8.10;99.90;;;;;;5089913;28;20266;-62
2022/02/11 14:33:38;;;;;;;10.35;9.23;;;8.10;99.90;;;;;;5084861;28;20208;-63
2022/02/11 14:36:09;;;;;;;12.20;9.65;;;8.10;99.90;;;;;;5084081;28;20217;-62
2022/02/11 14:38:40;;;;;;;10.32;9.23;;;8.00;99.90;;;;;;5082694;28;20245;-62
2022/02/11 14:44:01;;;;;;;10.43;8.68;;;8.10;99.90;;;;;;5080039;28;20277;-62
2022/02/11 14:46:32;;;;;;;9.65;8.75;;;8.10;99.90;;;;;;5094680;28;20274;-63
2022/02/11 14:49:05;;;;;;;8.93;7.90;;;8.10;99.90;;;;;;5085209;28;20213;-62
2022/02/11 14:51:37;;;;;;;9.95;8.95;;;8.10;99.90;;;;;;5092143;28;20289;-63
2022/02/11 14:54:10;;;;;;;9.38;8.43;;;8.10;99.90;;;;;;5085932;28;20261;-63
2022/02/11 14:56:41;;;;;;;8.95;8.07;;;8.00;99.90;;;;;;5083240;28;20197;-64
2022/02/11 14:59:14;;;;;;;9.70;8.70;;;8.00;99.90;;;;;;5076073;28;20285;-62
2022/02/11 15:01:46;;;;;;;11.50;8.77;;;8.10;99.90;;;;;;5085114;28;20204;-61
2022/02/11 15:04:18;;;;;;;9.40;8.40;;;8.10;99.90;;;;;;5089963;28;20193;-62
2022/02/11 15:06:51;;;;;;;9.10;8.30;;;8.00;99.90;;;;;;5083253;28;20236;-64
2022/02/11 15:09:22;;;;;;;9.40;8.50;;;8.00;99.90;;;;;;5076070;28;20221;-63
2022/02/11 15:11:53;;;;;;;9.02;8.13;;;7.90;99.90;;;;;;5086614;28;20325;-63
2022/02/11 15:14:27;;;;;;;9.10;8.30;;;7.90;99.90;;;;;;5082114;28;20193;-63
2022/02/11 15:16:58;;;;;;;9.30;8.38;;;7.90;99.90;;;;;;5081309;28;20205;-63
2022/02/11 15:19:29;;;;;;;10.02;8.20;;;7.90;99.90;;;;;;5082839;28;20204;-63
2022/02/11 15:21:59;;;;;;;9.13;7.65;;;7.80;99.90;;;;;;5082113;28;20211;-63
2022/02/11 15:24:30;;;;;;;10.23;8.63;;;7.90;99.90;;;;;;5082420;28;20212;-62
2022/02/11 15:27:01;;;;;;;9.27;8.10;;;7.80;99.90;;;;;;5092085;28;20205;-64
2022/02/11 15:29:34;;;;;;;9.82;8.35;;;7.80;99.90;;;;;;5095399;28;20228;-64
2022/02/11 15:32:05;;;;;;;11.35;9.80;;;7.80;99.90;;;;;;5094657;28;20193;-63
2022/02/11 15:34:36;;;;;;;9.55;8.63;;;7.90;99.90;;;;;;5083596;28;20236;-62
2022/02/11 15:37:08;;;;;;;65.30;17.38;;;7.80;99.90;;;;;;5077328;28;20209;-62
2022/02/11 15:39:42;;;;;;;11.20;9.52;;;7.90;99.90;;;;;;5092047;28;20305;-65
2022/02/11 15:42:14;;;;;;;10.60;9.10;;;7.90;99.90;;;;;;5091779;28;20208;-63
2022/02/11 15:44:46;;;;;;;11.05;9.95;;;7.80;99.90;;;;;;5081706;28;20205;-62
2022/02/11 15:47:17;;;;;;;10.90;9.73;;;7.90;99.90;;;;;;5089720;28;20203;-62
2022/02/11 15:49:48;;;;;;;9.75;8.70;;;7.90;99.90;;;;;;5089077;28;20233;-63
2022/02/11 15:52:21;;;;;;;35.08;11.73;;;7.90;99.90;;;;;;5078781;28;20207;-62
2022/02/11 15:54:52;;;;;;;9.00;8.10;;;7.80;99.90;;;;;;5082203;28;20208;-62
2022/02/11 15:57:26;;;;;;;9.93;8.93;;;7.90;99.90;;;;;;5083467;28;20219;-70
2022/02/11 15:59:58;;;;;;;17.77;10.20;;;7.80;99.90;;;;;;5088552;28;20263;-64
2022/02/11 16:02:29;;;;;;;9.98;8.98;;;8.00;99.90;;;;;;5086448;28;20265;-61
2022/02/11 16:05:00;;;;;;;10.27;8.35;;;8.00;99.90;;;;;;5083284;28;20205;-61
2022/02/11 16:07:30;;;;;;;9.40;8.40;;;8.00;99.90;;;;;;5085181;28;20204;-62
2022/02/11 16:10:02;;;;;;;9.57;8.35;;;8.00;99.90;;;;;;5082062;28;20641;-64
2022/02/11 16:12:34;;;;;;;16.52;9.40;;;7.90;99.90;;;;;;5081391;28;20197;-63
2022/02/11 16:15:12;;;;;;;8.63;7.82;;;8.00;99.90;;;;;;5085656;28;20548;-63
2022/02/11 16:20:35;;;;;;;9.88;8.77;;;8.00;99.90;;;;;;5080635;28;20637;-63